sensor_id;sensor_type;location;lat;lon;timestamp;temperature;humidity
20284;DHT22;10301;50.832;4.080;2023-06-10T00:00:12;22.40;99.90
20284;DHT22;10301;50.832;4.080;2023-06-10T00:02:41;22.40;99.90
20284;DHT22;10301;50.832;4.080;2023-06-10T00:05:08;22.30;1.00
20284;DHT22;10301;50.832;4.080;2023-06-10T00:07:34;22.30;99.90
20284;DHT22;10301;50.832;4.080;2023-06-10T00:10:04;22.30;99.90
20284;DHT22;10301;50.832;4.080;2023-06-10T00:12:31;22.30;99.90
20284;DHT22;10301;50.832;4.080;2023-06-10T00:15:03;22.30;1.00
20284;DHT22;10301;50.832;4.080;2023-06-10T00:17:30;22.30;1.00
20284;DHT22;10301;50.832;4.080;2023-06-10T00:19:56;22.20;1.00
20284;DHT22;10301;50.832;4.080;2023-06-10T00:22:23;22.40;1.00
20284;DHT22;10301;50.832;4.080;2023-06-10T00:24:49;22.50;99.90
20284;DHT22;10301;50.832;4.080;2023-06-10T00:27:16;22.70;15.70
20284;DHT22;10301;50.832;4.080;2023-06-10T00:29:42;22.80;1.00
20284;DHT22;10301;50.832;4.080;2023-06-10T00:32:08;22.80;1.00
20284;DHT22;10301;50.832;4.080;2023-06-10T00:34:33;22.60;96.30
20284;DHT22;10301;50.832;4.080;2023-06-10T00:36:59;22.50;99.90
20284;DHT22;10301;50.832;4.080;2023-06-10T00:39:25;22.40;1.00
20284;DHT22;10301;50.832;4.080;2023-06-10T00:41:50;22.40;1.00
20284;DHT22;10301;50.832;4.080;2023-06-10T00:44:16;22.30;1.00
20284;DHT22;10301;50.832;4.080;2023-06-10T00:46:42;22.10;99.90
20284;DHT22;10301;50.832;4.080;2023-06-10T00:49:09;22.00;99.90
20284;DHT22;10301;50.832;4.080;2023-06-10T00:51:35;22.00;99.90
20284;DHT22;10301;50.832;4.080;2023-06-10T00:54:01;22.10;77.20
20284;DHT22;10301;50.832;4.080;2023-06-10T00:56:27;22.20;1.00
20284;DHT22;10301;50.832;4.080;2023-06-10T00:58:53;22.10;1.00
20284;DHT22;10301;50.832;4.080;2023-06-10T01:01:19;21.90;99.90
20284;DHT22;10301;50.832;4.080;2023-06-10T01:03:45;21.80;1.00
20284;DHT22;10301;50.832;4.080;2023-06-10T01:09:23;21.60;99.90
20284;DHT22;10301;50.832;4.080;2023-06-10T01:12:05;21.60;99.90
20284;DHT22;10301;50.832;4.080;2023-06-10T01:14:35;21.60;99.90
20284;DHT22;10301;50.832;4.080;2023-06-10T01:17:01;21.60;99.90
20284;DHT22;10301;50.832;4.080;2023-06-10T01:19:28;21.50;99.90
20284;DHT22;10301;50.832;4.080;2023-06-10T01:21:56;21.90;99.90
20284;DHT22;10301;50.832;4.080;2023-06-10T01:24:27;21.90;1.00
20284;DHT22;10301;50.832;4.080;2023-06-10T01:26:55;21.70;1.00
20284;DHT22;10301;50.832;4.080;2023-06-10T01:29:46;21.80;1.00
20284;DHT22;10301;50.832;4.080;2023-06-10T01:32:36;21.80;1.00
20284;DHT22;10301;50.832;4.080;2023-06-10T01:35:00;21.90;1.00
20284;DHT22;10301;50.832;4.080;2023-06-10T01:37:27;21.90;1.00
20284;DHT22;10301;50.832;4.080;2023-06-10T01:39:55;21.70;1.00
20284;DHT22;10301;50.832;4.080;2023-06-10T01:42:23;21.50;1.00
20284;DHT22;10301;50.832;4.080;2023-06-10T01:44:50;21.40;1.00
20284;DHT22;10301;50.832;4.080;2023-06-10T01:47:15;21.50;1.00
20284;DHT22;10301;50.832;4.080;2023-06-10T01:49:42;21.60;99.90
20284;DHT22;10301;50.832;4.080;2023-06-10T01:52:07;21.50;1.00
20284;DHT22;10301;50.832;4.080;2023-06-10T01:54:33;21.50;1.00
20284;DHT22;10301;50.832;4.080;2023-06-10T01:57:00;21.20;99.90
20284;DHT22;10301;50.832;4.080;2023-06-10T01:59:26;21.10;1.00
20284;DHT22;10301;50.832;4.080;2023-06-10T02:01:52;21.00;1.00
20284;DHT22;10301;50.832;4.080;2023-06-10T02:04:17;20.90;65.80
20284;DHT22;10301;50.832;4.080;2023-06-10T02:06:43;21.00;1.00
20284;DHT22;10301;50.832;4.080;2023-06-10T02:09:10;21.00;1.00
20284;DHT22;10301;50.832;4.080;2023-06-10T02:11:36;21.10;1.00
20284;DHT22;10301;50.832;4.080;2023-06-10T02:14:02;21.00;1.00
20284;DHT22;10301;50.832;4.080;2023-06-10T02:16:27;21.10;99.90
20284;DHT22;10301;50.832;4.080;2023-06-10T02:18:53;21.20;1.00
20284;DHT22;10301;50.832;4.080;2023-06-10T02:21:20;21.00;99.90
20284;DHT22;10301;50.832;4.080;2023-06-10T02:23:45;21.00;1.00
20284;DHT22;10301;50.832;4.080;2023-06-10T02:26:11;21.00;1.00
20284;DHT22;10301;50.832;4.080;2023-06-10T02:28:37;21.00;1.00
20284;DHT22;10301;50.832;4.080;2023-06-10T02:31:02;20.90;1.00
20284;DHT22;10301;50.832;4.080;2023-06-10T02:33:28;21.00;1.00
20284;DHT22;10301;50.832;4.080;2023-06-10T02:35:55;20.90;1.00
20284;DHT22;10301;50.832;4.080;2023-06-10T02:38:21;20.90;1.00
20284;DHT22;10301;50.832;4.080;2023-06-10T02:40:47;20.70;91.70
20284;DHT22;10301;50.832;4.080;2023-06-10T02:43:12;20.80;42.30
20284;DHT22;10301;50.832;4.080;2023-06-10T02:45:38;20.80;24.70
20284;DHT22;10301;50.832;4.080;2023-06-10T02:48:04;20.90;1.00
20284;DHT22;10301;50.832;4.080;2023-06-10T02:50:30;20.70;99.90
20284;DHT22;10301;50.832;4.080;2023-06-10T02:52:55;20.50;1.00
20284;DHT22;10301;50.832;4.080;2023-06-10T02:55:21;20.30;1.00
20284;DHT22;10301;50.832;4.080;2023-06-10T02:57:47;20.20;1.00
20284;DHT22;10301;50.832;4.080;2023-06-10T03:00:12;20.30;1.00
20284;DHT22;10301;50.832;4.080;2023-06-10T03:02:39;20.30;1.00
20284;DHT22;10301;50.832;4.080;2023-06-10T03:05:05;20.30;1.00
20284;DHT22;10301;50.832;4.080;2023-06-10T03:07:35;20.30;1.00
20284;DHT22;10301;50.832;4.080;2023-06-10T03:10:01;20.30;1.00
20284;DHT22;10301;50.832;4.080;2023-06-10T03:12:27;20.50;99.90
20284;DHT22;10301;50.832;4.080;2023-06-10T03:14:52;20.30;99.90
20284;DHT22;10301;50.832;4.080;2023-06-10T03:17:18;20.30;1.00
20284;DHT22;10301;50.832;4.080;2023-06-10T03:19:43;20.20;1.00
20284;DHT22;10301;50.832;4.080;2023-06-10T03:22:10;20.10;1.00
20284;DHT22;10301;50.832;4.080;2023-06-10T03:24:36;19.90;1.00
20284;DHT22;10301;50.832;4.080;2023-06-10T03:27:06;19.80;1.00
20284;DHT22;10301;50.832;4.080;2023-06-10T03:29:32;20.00;1.00
20284;DHT22;10301;50.832;4.080;2023-06-10T03:31:57;20.00;1.00
20284;DHT22;10301;50.832;4.080;2023-06-10T03:34:23;20.00;1.00
20284;DHT22;10301;50.832;4.080;2023-06-10T03:36:49;19.90;1.00
20284;DHT22;10301;50.832;4.080;2023-06-10T03:39:15;19.80;1.00
20284;DHT22;10301;50.832;4.080;2023-06-10T03:41:40;19.80;93.00
20284;DHT22;10301;50.832;4.080;2023-06-10T03:44:06;19.90;1.00
20284;DHT22;10301;50.832;4.080;2023-06-10T03:46:32;19.90;1.00
20284;DHT22;10301;50.832;4.080;2023-06-10T03:48:58;20.00;1.00
20284;DHT22;10301;50.832;4.080;2023-06-10T03:51:26;20.10;99.90
20284;DHT22;10301;50.832;4.080;2023-06-10T03:53:52;20.30;1.00
20284;DHT22;10301;50.832;4.080;2023-06-10T03:56:18;20.10;1.00
20284;DHT22;10301;50.832;4.080;2023-06-10T03:58:43;20.10;1.00
20284;DHT22;10301;50.832;4.080;2023-06-10T04:01:09;20.00;1.00
20284;DHT22;10301;50.832;4.080;2023-06-10T04:03:36;20.10;1.00
20284;DHT22;10301;50.832;4.080;2023-06-10T04:06:01;20.20;99.90
20284;DHT22;10301;50.832;4.080;2023-06-10T04:08:28;20.10;1.00
20284;DHT22;10301;50.832;4.080;2023-06-10T04:10:54;20.10;1.00
20284;DHT22;10301;50.832;4.080;2023-06-10T04:13:20;20.10;1.00
20284;DHT22;10301;50.832;4.080;2023-06-10T04:15:45;20.20;1.00
20284;DHT22;10301;50.832;4.080;2023-06-10T04:18:11;20.10;1.00
20284;DHT22;10301;50.832;4.080;2023-06-10T04:20:37;20.30;1.00
20284;DHT22;10301;50.832;4.080;2023-06-10T04:23:03;20.30;1.00
20284;DHT22;10301;50.832;4.080;2023-06-10T04:25:29;20.30;99.90
20284;DHT22;10301;50.832;4.080;2023-06-10T04:27:54;20.30;1.00
20284;DHT22;10301;50.832;4.080;2023-06-10T04:30:20;20.30;99.90
20284;DHT22;10301;50.832;4.080;2023-06-10T04:32:47;20.60;1.00
20284;DHT22;10301;50.832;4.080;2023-06-10T04:35:12;20.70;1.00
20284;DHT22;10301;50.832;4.080;2023-06-10T04:37:39;20.80;99.90
20284;DHT22;10301;50.832;4.080;2023-06-10T04:40:07;20.80;1.00
20284;DHT22;10301;50.832;4.080;2023-06-10T04:42:33;21.00;1.00
20284;DHT22;10301;50.832;4.080;2023-06-10T04:44:58;21.20;1.00
20284;DHT22;10301;50.832;4.080;2023-06-10T04:47:26;21.40;96.20
20284;DHT22;10301;50.832;4.080;2023-06-10T04:49:52;21.50;1.00
20284;DHT22;10301;50.832;4.080;2023-06-10T04:52:18;21.20;99.90
20284;DHT22;10301;50.832;4.080;2023-06-10T04:54:43;21.00;1.00
20284;DHT22;10301;50.832;4.080;2023-06-10T04:57:09;21.10;20.50
20284;DHT22;10301;50.832;4.080;2023-06-10T04:59:37;21.10;99.00
20284;DHT22;10301;50.832;4.080;2023-06-10T05:02:06;21.10;1.00
20284;DHT22;10301;50.832;4.080;2023-06-10T05:04:31;21.20;5.00
20284;DHT22;10301;50.832;4.080;2023-06-10T05:06:57;21.40;99.90
20284;DHT22;10301;50.832;4.080;2023-06-10T05:09:23;21.80;1.00
20284;DHT22;10301;50.832;4.080;2023-06-10T05:11:49;22.10;99.90
20284;DHT22;10301;50.832;4.080;2023-06-10T05:14:14;22.50;99.90
20284;DHT22;10301;50.832;4.080;2023-06-10T05:16:43;22.80;1.00
20284;DHT22;10301;50.832;4.080;2023-06-10T05:19:08;22.80;1.00
20284;DHT22;10301;50.832;4.080;2023-06-10T05:21:34;23.10;99.90
20284;DHT22;10301;50.832;4.080;2023-06-10T05:24:00;23.50;1.00
20284;DHT22;10301;50.832;4.080;2023-06-10T05:26:25;23.70;99.90
20284;DHT22;10301;50.832;4.080;2023-06-10T05:28:51;24.00;1.00
20284;DHT22;10301;50.832;4.080;2023-06-10T05:31:18;24.20;1.00
20284;DHT22;10301;50.832;4.080;2023-06-10T05:33:43;24.40;1.00
20284;DHT22;10301;50.832;4.080;2023-06-10T05:36:09;24.40;1.00
20284;DHT22;10301;50.832;4.080;2023-06-10T05:38:35;24.50;1.00
20284;DHT22;10301;50.832;4.080;2023-06-10T05:41:00;24.60;1.00
20284;DHT22;10301;50.832;4.080;2023-06-10T05:43:26;24.90;99.90
20284;DHT22;10301;50.832;4.080;2023-06-10T05:45:52;25.10;99.90
20284;DHT22;10301;50.832;4.080;2023-06-10T05:48:18;25.20;1.00
20284;DHT22;10301;50.832;4.080;2023-06-10T05:50:45;25.00;99.90
20284;DHT22;10301;50.832;4.080;2023-06-10T05:53:14;25.20;89.10
20284;DHT22;10301;50.832;4.080;2023-06-10T05:55:44;25.20;83.70
20284;DHT22;10301;50.832;4.080;2023-06-10T05:58:10;25.30;1.00
20284;DHT22;10301;50.832;4.080;2023-06-10T06:00:40;25.30;1.00
20284;DHT22;10301;50.832;4.080;2023-06-10T06:03:07;25.30;1.00
20284;DHT22;10301;50.832;4.080;2023-06-10T06:05:34;25.20;1.00
20284;DHT22;10301;50.832;4.080;2023-06-10T06:08:04;25.30;32.70
20284;DHT22;10301;50.832;4.080;2023-06-10T06:10:30;25.40;99.90
20284;DHT22;10301;50.832;4.080;2023-06-10T06:12:56;25.20;99.90
20284;DHT22;10301;50.832;4.080;2023-06-10T06:15:21;25.00;99.90
20284;DHT22;10301;50.832;4.080;2023-06-10T06:17:47;25.20;1.00
20284;DHT22;10301;50.832;4.080;2023-06-10T06:20:13;25.10;99.90
20284;DHT22;10301;50.832;4.080;2023-06-10T06:22:38;25.30;99.90
20284;DHT22;10301;50.832;4.080;2023-06-10T06:25:04;25.10;99.90
20284;DHT22;10301;50.832;4.080;2023-06-10T06:27:31;25.20;99.90
20284;DHT22;10301;50.832;4.080;2023-06-10T06:29:56;25.10;99.90
20284;DHT22;10301;50.832;4.080;2023-06-10T06:32:22;25.30;99.90
20284;DHT22;10301;50.832;4.080;2023-06-10T06:34:50;25.10;99.90
20284;DHT22;10301;50.832;4.080;2023-06-10T06:37:23;25.30;99.90
20284;DHT22;10301;50.832;4.080;2023-06-10T06:39:50;25.50;19.40
20284;DHT22;10301;50.832;4.080;2023-06-10T06:42:16;25.80;1.00
20284;DHT22;10301;50.832;4.080;2023-06-10T06:44:42;25.70;1.00
20284;DHT22;10301;50.832;4.080;2023-06-10T06:47:08;25.80;1.00
20284;DHT22;10301;50.832;4.080;2023-06-10T06:49:34;25.70;1.00
20284;DHT22;10301;50.832;4.080;2023-06-10T06:51:59;25.70;1.00
20284;DHT22;10301;50.832;4.080;2023-06-10T06:54:25;25.70;99.90
20284;DHT22;10301;50.832;4.080;2023-06-10T06:56:51;25.80;99.90
20284;DHT22;10301;50.832;4.080;2023-06-10T06:59:16;25.70;1.00
20284;DHT22;10301;50.832;4.080;2023-06-10T07:01:44;25.80;99.90
20284;DHT22;10301;50.832;4.080;2023-06-10T07:04:10;25.80;99.90
20284;DHT22;10301;50.832;4.080;2023-06-10T07:06:39;25.60;99.90
20284;DHT22;10301;50.832;4.080;2023-06-10T07:09:05;25.60;99.90
20284;DHT22;10301;50.832;4.080;2023-06-10T07:11:32;25.70;1.00
20284;DHT22;10301;50.832;4.080;2023-06-10T07:13:57;25.70;99.90
20284;DHT22;10301;50.832;4.080;2023-06-10T07:16:23;25.70;99.90
20284;DHT22;10301;50.832;4.080;2023-06-10T07:18:48;25.90;99.90
20284;DHT22;10301;50.832;4.080;2023-06-10T07:21:14;25.90;99.90
20284;DHT22;10301;50.832;4.080;2023-06-10T07:23:43;25.90;99.90
20284;DHT22;10301;50.832;4.080;2023-06-10T07:26:10;26.00;99.90
20284;DHT22;10301;50.832;4.080;2023-06-10T07:28:40;26.10;99.90
20284;DHT22;10301;50.832;4.080;2023-06-10T07:31:07;26.20;99.90
20284;DHT22;10301;50.832;4.080;2023-06-10T07:33:33;26.30;1.00
20284;DHT22;10301;50.832;4.080;2023-06-10T07:35:59;26.30;22.30
20284;DHT22;10301;50.832;4.080;2023-06-10T07:38:25;26.10;4.80
20284;DHT22;10301;50.832;4.080;2023-06-10T07:40:51;26.10;99.00
20284;DHT22;10301;50.832;4.080;2023-06-10T07:43:17;26.30;1.00
20284;DHT22;10301;50.832;4.080;2023-06-10T07:45:43;26.60;1.00
20284;DHT22;10301;50.832;4.080;2023-06-10T07:48:08;26.70;1.00
20284;DHT22;10301;50.832;4.080;2023-06-10T07:50:34;26.70;1.00
20284;DHT22;10301;50.832;4.080;2023-06-10T07:53:00;26.50;1.00
20284;DHT22;10301;50.832;4.080;2023-06-10T07:55:26;26.40;1.00
20284;DHT22;10301;50.832;4.080;2023-06-10T07:57:52;26.20;1.00
20284;DHT22;10301;50.832;4.080;2023-06-10T08:00:19;26.30;1.00
20284;DHT22;10301;50.832;4.080;2023-06-10T08:02:46;26.40;1.00
20284;DHT22;10301;50.832;4.080;2023-06-10T08:05:12;26.20;1.00
20284;DHT22;10301;50.832;4.080;2023-06-10T08:07:38;26.20;1.00
20284;DHT22;10301;50.832;4.080;2023-06-10T08:10:05;26.40;1.00
20284;DHT22;10301;50.832;4.080;2023-06-10T08:12:32;26.60;1.00
20284;DHT22;10301;50.832;4.080;2023-06-10T08:14:57;26.80;1.00
20284;DHT22;10301;50.832;4.080;2023-06-10T08:17:23;26.90;1.00
20284;DHT22;10301;50.832;4.080;2023-06-10T08:19:49;26.90;1.00
20284;DHT22;10301;50.832;4.080;2023-06-10T08:22:15;27.10;1.00
20284;DHT22;10301;50.832;4.080;2023-06-10T08:24:41;27.10;1.00
20284;DHT22;10301;50.832;4.080;2023-06-10T08:27:07;27.20;1.00
20284;DHT22;10301;50.832;4.080;2023-06-10T08:29:32;27.20;1.00
20284;DHT22;10301;50.832;4.080;2023-06-10T08:31:58;27.30;1.00
20284;DHT22;10301;50.832;4.080;2023-06-10T08:34:24;27.40;1.00
20284;DHT22;10301;50.832;4.080;2023-06-10T08:36:50;27.40;1.00
20284;DHT22;10301;50.832;4.080;2023-06-10T08:39:19;27.40;1.00
20284;DHT22;10301;50.832;4.080;2023-06-10T08:44:30;27.60;1.00
20284;DHT22;10301;50.832;4.080;2023-06-10T08:46:59;27.60;1.00
20284;DHT22;10301;50.832;4.080;2023-06-10T08:49:27;27.50;1.00
20284;DHT22;10301;50.832;4.080;2023-06-10T08:52:02;27.60;1.00
20284;DHT22;10301;50.832;4.080;2023-06-10T08:54:32;27.70;1.00
20284;DHT22;10301;50.832;4.080;2023-06-10T08:57:02;27.80;1.00
20284;DHT22;10301;50.832;4.080;2023-06-10T08:59:29;27.70;1.00
20284;DHT22;10301;50.832;4.080;2023-06-10T09:01:55;27.70;1.00
20284;DHT22;10301;50.832;4.080;2023-06-10T09:04:21;27.60;1.00
20284;DHT22;10301;50.832;4.080;2023-06-10T09:06:49;27.60;1.00
20284;DHT22;10301;50.832;4.080;2023-06-10T09:09:15;27.70;1.00
20284;DHT22;10301;50.832;4.080;2023-06-10T09:11:42;27.80;1.00
20284;DHT22;10301;50.832;4.080;2023-06-10T09:14:08;27.80;1.00
20284;DHT22;10301;50.832;4.080;2023-06-10T09:16:34;27.90;1.00
20284;DHT22;10301;50.832;4.080;2023-06-10T09:19:00;28.00;1.00
20284;DHT22;10301;50.832;4.080;2023-06-10T09:21:26;27.90;1.00
20284;DHT22;10301;50.832;4.080;2023-06-10T09:23:52;28.10;1.00
20284;DHT22;10301;50.832;4.080;2023-06-10T09:26:18;28.20;1.00
20284;DHT22;10301;50.832;4.080;2023-06-10T09:28:50;28.30;1.00
20284;DHT22;10301;50.832;4.080;2023-06-10T09:31:16;28.20;1.00
20284;DHT22;10301;50.832;4.080;2023-06-10T09:33:44;28.10;1.00
20284;DHT22;10301;50.832;4.080;2023-06-10T09:36:10;28.10;1.00
20284;DHT22;10301;50.832;4.080;2023-06-10T09:38:36;28.40;1.00
20284;DHT22;10301;50.832;4.080;2023-06-10T09:41:03;28.50;1.00
20284;DHT22;10301;50.832;4.080;2023-06-10T09:43:46;28.60;1.00
20284;DHT22;10301;50.832;4.080;2023-06-10T09:46:18;28.80;1.00
20284;DHT22;10301;50.832;4.080;2023-06-10T09:48:46;28.80;1.00
20284;DHT22;10301;50.832;4.080;2023-06-10T09:51:13;28.90;1.00
20284;DHT22;10301;50.832;4.080;2023-06-10T09:53:39;28.70;1.00
20284;DHT22;10301;50.832;4.080;2023-06-10T09:56:05;28.60;1.00
20284;DHT22;10301;50.832;4.080;2023-06-10T09:58:38;28.80;1.00
20284;DHT22;10301;50.832;4.080;2023-06-10T10:01:09;28.80;1.00
20284;DHT22;10301;50.832;4.080;2023-06-10T10:03:49;28.80;1.00
20284;DHT22;10301;50.832;4.080;2023-06-10T10:06:17;28.80;1.00
20284;DHT22;10301;50.832;4.080;2023-06-10T10:08:47;28.90;1.00
20284;DHT22;10301;50.832;4.080;2023-06-10T10:11:16;28.80;1.00
20284;DHT22;10301;50.832;4.080;2023-06-10T10:13:43;28.80;1.00
20284;DHT22;10301;50.832;4.080;2023-06-10T10:16:12;28.90;1.00
20284;DHT22;10301;50.832;4.080;2023-06-10T10:18:41;28.90;1.00
20284;DHT22;10301;50.832;4.080;2023-06-10T10:21:12;29.10;1.00
20284;DHT22;10301;50.832;4.080;2023-06-10T10:24:09;29.20;1.00
20284;DHT22;10301;50.832;4.080;2023-06-10T10:26:38;29.00;1.00
20284;DHT22;10301;50.832;4.080;2023-06-10T10:29:11;29.10;1.00
20284;DHT22;10301;50.832;4.080;2023-06-10T10:31:39;29.30;1.00
20284;DHT22;10301;50.832;4.080;2023-06-10T10:34:13;29.50;1.00
20284;DHT22;10301;50.832;4.080;2023-06-10T10:36:41;29.80;1.00
20284;DHT22;10301;50.832;4.080;2023-06-10T10:39:07;29.70;1.00
20284;DHT22;10301;50.832;4.080;2023-06-10T10:41:34;29.60;1.00
20284;DHT22;10301;50.832;4.080;2023-06-10T10:44:02;29.50;1.00
20284;DHT22;10301;50.832;4.080;2023-06-10T10:46:30;29.50;1.00
20284;DHT22;10301;50.832;4.080;2023-06-10T10:49:08;29.50;1.00
20284;DHT22;10301;50.832;4.080;2023-06-10T10:51:34;29.60;1.00
20284;DHT22;10301;50.832;4.080;2023-06-10T10:54:11;29.60;1.00
20284;DHT22;10301;50.832;4.080;2023-06-10T10:56:38;29.70;1.00
20284;DHT22;10301;50.832;4.080;2023-06-10T10:59:07;29.90;1.00
20284;DHT22;10301;50.832;4.080;2023-06-10T11:01:43;29.90;1.00
20284;DHT22;10301;50.832;4.080;2023-06-10T11:04:12;30.00;1.00
20284;DHT22;10301;50.832;4.080;2023-06-10T11:06:37;30.20;1.00
20284;DHT22;10301;50.832;4.080;2023-06-10T11:09:26;30.30;1.00
20284;DHT22;10301;50.832;4.080;2023-06-10T11:11:53;30.00;1.00
20284;DHT22;10301;50.832;4.080;2023-06-10T11:14:28;29.90;1.00
20284;DHT22;10301;50.832;4.080;2023-06-10T11:16:57;30.00;1.00
20284;DHT22;10301;50.832;4.080;2023-06-10T11:19:36;30.20;1.00
20284;DHT22;10301;50.832;4.080;2023-06-10T11:22:06;30.20;1.00
20284;DHT22;10301;50.832;4.080;2023-06-10T11:24:32;30.30;1.00
20284;DHT22;10301;50.832;4.080;2023-06-10T11:27:17;30.30;1.00
20284;DHT22;10301;50.832;4.080;2023-06-10T11:29:57;30.30;1.00
20284;DHT22;10301;50.832;4.080;2023-06-10T11:32:25;30.30;1.00
20284;DHT22;10301;50.832;4.080;2023-06-10T11:34:54;30.10;1.00
20284;DHT22;10301;50.832;4.080;2023-06-10T11:37:21;30.20;1.00
20284;DHT22;10301;50.832;4.080;2023-06-10T11:39:47;30.30;1.00
20284;DHT22;10301;50.832;4.080;2023-06-10T11:42:13;30.10;1.00
20284;DHT22;10301;50.832;4.080;2023-06-10T11:44:50;30.10;1.00
20284;DHT22;10301;50.832;4.080;2023-06-10T11:47:20;30.20;1.00
20284;DHT22;10301;50.832;4.080;2023-06-10T11:49:56;30.40;1.00
20284;DHT22;10301;50.832;4.080;2023-06-10T11:52:31;30.60;1.00
20284;DHT22;10301;50.832;4.080;2023-06-10T11:55:05;30.50;1.00
20284;DHT22;10301;50.832;4.080;2023-06-10T11:57:34;30.50;1.00
20284;DHT22;10301;50.832;4.080;2023-06-10T12:00:05;30.70;1.00
20284;DHT22;10301;50.832;4.080;2023-06-10T12:02:31;30.60;1.00
20284;DHT22;10301;50.832;4.080;2023-06-10T12:05:10;30.60;1.00
20284;DHT22;10301;50.832;4.080;2023-06-10T12:07:36;30.80;1.00
20284;DHT22;10301;50.832;4.080;2023-06-10T12:10:01;30.80;1.00
20284;DHT22;10301;50.832;4.080;2023-06-10T12:12:27;30.90;1.00
20284;DHT22;10301;50.832;4.080;2023-06-10T12:14:56;30.80;1.00
20284;DHT22;10301;50.832;4.080;2023-06-10T12:17:42;30.90;1.00
20284;DHT22;10301;50.832;4.080;2023-06-10T12:20:09;30.80;1.00
20284;DHT22;10301;50.832;4.080;2023-06-10T12:22:49;30.60;1.00
20284;DHT22;10301;50.832;4.080;2023-06-10T12:25:15;30.50;1.00
20284;DHT22;10301;50.832;4.080;2023-06-10T12:27:53;30.80;1.00
20284;DHT22;10301;50.832;4.080;2023-06-10T12:30:23;30.70;1.00
20284;DHT22;10301;50.832;4.080;2023-06-10T12:32:50;30.90;1.00
20284;DHT22;10301;50.832;4.080;2023-06-10T12:35:19;30.80;1.00
20284;DHT22;10301;50.832;4.080;2023-06-10T12:37:56;30.60;1.00
20284;DHT22;10301;50.832;4.080;2023-06-10T12:40:27;30.70;1.00
20284;DHT22;10301;50.832;4.080;2023-06-10T12:42:54;30.90;1.00
20284;DHT22;10301;50.832;4.080;2023-06-10T12:45:32;31.00;1.00
20284;DHT22;10301;50.832;4.080;2023-06-10T12:48:07;31.10;1.00
20284;DHT22;10301;50.832;4.080;2023-06-10T12:50:35;31.10;1.00
20284;DHT22;10301;50.832;4.080;2023-06-10T12:53:01;31.00;1.00
20284;DHT22;10301;50.832;4.080;2023-06-10T12:55:27;31.00;1.00
20284;DHT22;10301;50.832;4.080;2023-06-10T12:57:53;31.20;1.00
20284;DHT22;10301;50.832;4.080;2023-06-10T13:00:20;31.20;1.00
20284;DHT22;10301;50.832;4.080;2023-06-10T13:02:52;31.40;1.00
20284;DHT22;10301;50.832;4.080;2023-06-10T13:05:18;31.50;1.00
20284;DHT22;10301;50.832;4.080;2023-06-10T13:07:44;31.40;1.00
20284;DHT22;10301;50.832;4.080;2023-06-10T13:10:10;31.60;1.00
20284;DHT22;10301;50.832;4.080;2023-06-10T13:12:36;31.60;1.00
20284;DHT22;10301;50.832;4.080;2023-06-10T13:15:02;31.80;1.00
20284;DHT22;10301;50.832;4.080;2023-06-10T13:17:28;31.90;1.00
20284;DHT22;10301;50.832;4.080;2023-06-10T13:19:54;31.80;1.00
20284;DHT22;10301;50.832;4.080;2023-06-10T13:22:20;31.80;1.00
20284;DHT22;10301;50.832;4.080;2023-06-10T13:24:45;31.70;1.00
20284;DHT22;10301;50.832;4.080;2023-06-10T13:27:12;31.80;1.00
20284;DHT22;10301;50.832;4.080;2023-06-10T13:29:39;31.80;1.00
20284;DHT22;10301;50.832;4.080;2023-06-10T13:32:06;31.80;1.00
20284;DHT22;10301;50.832;4.080;2023-06-10T13:34:32;31.90;1.00
20284;DHT22;10301;50.832;4.080;2023-06-10T13:36:57;32.10;1.00
20284;DHT22;10301;50.832;4.080;2023-06-10T13:39:24;31.90;1.00
20284;DHT22;10301;50.832;4.080;2023-06-10T13:41:49;32.00;1.00
20284;DHT22;10301;50.832;4.080;2023-06-10T13:44:15;32.10;1.00
20284;DHT22;10301;50.832;4.080;2023-06-10T13:46:40;32.20;1.00
20284;DHT22;10301;50.832;4.080;2023-06-10T13:49:06;32.30;1.00
20284;DHT22;10301;50.832;4.080;2023-06-10T13:51:32;32.30;1.00
20284;DHT22;10301;50.832;4.080;2023-06-10T13:53:57;32.20;1.00
20284;DHT22;10301;50.832;4.080;2023-06-10T13:56:23;32.20;1.00
20284;DHT22;10301;50.832;4.080;2023-06-10T13:58:48;32.30;1.00
20284;DHT22;10301;50.832;4.080;2023-06-10T14:01:14;32.60;1.00
20284;DHT22;10301;50.832;4.080;2023-06-10T14:03:40;32.70;1.00
20284;DHT22;10301;50.832;4.080;2023-06-10T14:06:06;32.30;1.00
20284;DHT22;10301;50.832;4.080;2023-06-10T14:08:31;32.10;1.00
20284;DHT22;10301;50.832;4.080;2023-06-10T14:10:57;32.20;1.00
20284;DHT22;10301;50.832;4.080;2023-06-10T14:13:23;32.10;1.00
20284;DHT22;10301;50.832;4.080;2023-06-10T14:15:49;32.30;1.00
20284;DHT22;10301;50.832;4.080;2023-06-10T14:18:15;32.50;1.00
20284;DHT22;10301;50.832;4.080;2023-06-10T14:20:40;32.50;1.00
20284;DHT22;10301;50.832;4.080;2023-06-10T14:23:06;32.60;1.00
20284;DHT22;10301;50.832;4.080;2023-06-10T14:25:32;32.60;1.00
20284;DHT22;10301;50.832;4.080;2023-06-10T14:27:57;32.50;1.00
20284;DHT22;10301;50.832;4.080;2023-06-10T14:30:23;32.70;1.00
20284;DHT22;10301;50.832;4.080;2023-06-10T14:32:49;32.80;1.00
20284;DHT22;10301;50.832;4.080;2023-06-10T14:35:15;32.90;1.00
20284;DHT22;10301;50.832;4.080;2023-06-10T14:37:40;33.10;1.00
20284;DHT22;10301;50.832;4.080;2023-06-10T14:40:06;33.10;1.00
20284;DHT22;10301;50.832;4.080;2023-06-10T14:42:32;33.20;1.00
20284;DHT22;10301;50.832;4.080;2023-06-10T14:44:58;33.40;1.00
20284;DHT22;10301;50.832;4.080;2023-06-10T14:47:24;33.50;1.00
20284;DHT22;10301;50.832;4.080;2023-06-10T14:49:50;33.50;1.00
20284;DHT22;10301;50.832;4.080;2023-06-10T14:52:16;33.30;1.00
20284;DHT22;10301;50.832;4.080;2023-06-10T14:54:42;33.30;1.00
20284;DHT22;10301;50.832;4.080;2023-06-10T14:57:07;33.20;1.00
20284;DHT22;10301;50.832;4.080;2023-06-10T14:59:33;33.20;1.00
20284;DHT22;10301;50.832;4.080;2023-06-10T15:02:00;33.00;1.00
20284;DHT22;10301;50.832;4.080;2023-06-10T15:04:27;32.60;1.00
20284;DHT22;10301;50.832;4.080;2023-06-10T15:06:53;32.40;1.00
20284;DHT22;10301;50.832;4.080;2023-06-10T15:09:19;32.40;1.00
20284;DHT22;10301;50.832;4.080;2023-06-10T15:11:45;32.40;1.00
20284;DHT22;10301;50.832;4.080;2023-06-10T15:14:10;32.10;1.00
20284;DHT22;10301;50.832;4.080;2023-06-10T15:16:36;32.10;1.00
20284;DHT22;10301;50.832;4.080;2023-06-10T15:19:02;32.30;1.00
20284;DHT22;10301;50.832;4.080;2023-06-10T15:21:28;32.60;1.00
20284;DHT22;10301;50.832;4.080;2023-06-10T15:23:54;32.80;1.00
20284;DHT22;10301;50.832;4.080;2023-06-10T15:26:19;32.70;1.00
20284;DHT22;10301;50.832;4.080;2023-06-10T15:28:45;32.70;1.00
20284;DHT22;10301;50.832;4.080;2023-06-10T15:31:11;32.80;1.00
20284;DHT22;10301;50.832;4.080;2023-06-10T15:33:37;32.80;1.00
20284;DHT22;10301;50.832;4.080;2023-06-10T15:36:03;32.80;1.00
20284;DHT22;10301;50.832;4.080;2023-06-10T15:38:30;32.80;1.00
20284;DHT22;10301;50.832;4.080;2023-06-10T15:40:55;32.70;1.00
20284;DHT22;10301;50.832;4.080;2023-06-10T15:43:21;32.90;1.00
20284;DHT22;10301;50.832;4.080;2023-06-10T15:45:47;33.00;1.00
20284;DHT22;10301;50.832;4.080;2023-06-10T15:48:12;33.00;1.00